sensor_id;sensor_type;location;lat;lon;timestamp;P1;durP1;ratioP1;P2;durP2;ratioP2
42200;SDS011;27869;51.442;7.540;2023-08-24T00:01:33;9.40;;;2.80;;
42200;SDS011;27869;51.442;7.540;2023-08-24T00:04:00;13.18;;;2.67;;
42200;SDS011;27869;51.442;7.540;2023-08-24T00:06:27;9.00;;;2.92;;
42200;SDS011;27869;51.442;7.540;2023-08-24T00:08:53;8.68;;;2.50;;
42200;SDS011;27869;51.442;7.540;2023-08-24T00:11:22;11.75;;;3.10;;
42200;SDS011;27869;51.442;7.540;2023-08-24T00:13:48;10.43;;;2.80;;
42200;SDS011;27869;51.442;7.540;2023-08-24T00:16:16;8.35;;;2.50;;
42200;SDS011;27869;51.442;7.540;2023-08-24T00:18:43;11.60;;;2.63;;
42200;SDS011;27869;51.442;7.540;2023-08-24T00:21:10;11.38;;;2.95;;
42200;SDS011;27869;51.442;7.540;2023-08-24T00:23:37;9.73;;;2.63;;
42200;SDS011;27869;51.442;7.540;2023-08-24T00:26:03;11.75;;;2.65;;
42200;SDS011;27869;51.442;7.540;2023-08-24T00:28:32;11.80;;;2.75;;
42200;SDS011;27869;51.442;7.540;2023-08-24T00:30:58;11.45;;;3.13;;
42200;SDS011;27869;51.442;7.540;2023-08-24T00:33:26;9.82;;;2.72;;
42200;SDS011;27869;51.442;7.540;2023-08-24T00:35:53;8.52;;;2.88;;
42200;SDS011;27869;51.442;7.540;2023-08-24T00:38:20;11.90;;;2.80;;
42200;SDS011;27869;51.442;7.540;2023-08-24T00:40:47;9.68;;;2.55;;
42200;SDS011;27869;51.442;7.540;2023-08-24T00:43:14;11.20;;;2.90;;
42200;SDS011;27869;51.442;7.540;2023-08-24T00:45:42;8.75;;;2.55;;
42200;SDS011;27869;51.442;7.540;2023-08-24T00:48:09;11.05;;;2.50;;
42200;SDS011;27869;51.442;7.540;2023-08-24T00:50:36;8.00;;;2.50;;
42200;SDS011;27869;51.442;7.540;2023-08-24T00:53:03;10.30;;;2.67;;
42200;SDS011;27869;51.442;7.540;2023-08-24T00:55:30;13.95;;;2.88;;
42200;SDS011;27869;51.442;7.540;2023-08-24T00:57:57;12.43;;;2.83;;
42200;SDS011;27869;51.442;7.540;2023-08-24T01:00:25;10.27;;;2.63;;
42200;SDS011;27869;51.442;7.540;2023-08-24T01:02:54;8.45;;;2.40;;
42200;SDS011;27869;51.442;7.540;2023-08-24T01:05:21;12.20;;;2.83;;
42200;SDS011;27869;51.442;7.540;2023-08-24T01:07:48;13.95;;;2.97;;
42200;SDS011;27869;51.442;7.540;2023-08-24T01:10:16;10.80;;;2.80;;
42200;SDS011;27869;51.442;7.540;2023-08-24T01:12:48;8.57;;;2.42;;
42200;SDS011;27869;51.442;7.540;2023-08-24T01:15:24;10.75;;;2.50;;
42200;SDS011;27869;51.442;7.540;2023-08-24T01:17:57;10.90;;;2.53;;
42200;SDS011;27869;51.442;7.540;2023-08-24T01:20:30;10.73;;;2.60;;
42200;SDS011;27869;51.442;7.540;2023-08-24T01:23:03;10.88;;;3.03;;
42200;SDS011;27869;51.442;7.540;2023-08-24T01:25:37;8.70;;;2.70;;
42200;SDS011;27869;51.442;7.540;2023-08-24T01:28:09;11.75;;;2.97;;
42200;SDS011;27869;51.442;7.540;2023-08-24T01:30:40;10.40;;;2.88;;
42200;SDS011;27869;51.442;7.540;2023-08-24T01:33:07;9.30;;;2.60;;
42200;SDS011;27869;51.442;7.540;2023-08-24T01:35:37;9.00;;;2.40;;
42200;SDS011;27869;51.442;7.540;2023-08-24T01:38:04;11.40;;;2.50;;
42200;SDS011;27869;51.442;7.540;2023-08-24T01:40:33;10.43;;;2.58;;
42200;SDS011;27869;51.442;7.540;2023-08-24T01:43:07;9.52;;;2.65;;
42200;SDS011;27869;51.442;7.540;2023-08-24T01:45:39;10.25;;;2.63;;
42200;SDS011;27869;51.442;7.540;2023-08-24T01:48:08;11.90;;;2.70;;
42200;SDS011;27869;51.442;7.540;2023-08-24T01:50:36;9.63;;;2.60;;
42200;SDS011;27869;51.442;7.540;2023-08-24T01:53:03;12.90;;;2.75;;
42200;SDS011;27869;51.442;7.540;2023-08-24T01:55:31;10.70;;;2.80;;
42200;SDS011;27869;51.442;7.540;2023-08-24T01:57:58;11.73;;;3.00;;
42200;SDS011;27869;51.442;7.540;2023-08-24T02:00:26;11.50;;;2.92;;
42200;SDS011;27869;51.442;7.540;2023-08-24T02:02:53;9.77;;;2.83;;
42200;SDS011;27869;51.442;7.540;2023-08-24T02:05:20;12.38;;;3.10;;
42200;SDS011;27869;51.442;7.540;2023-08-24T02:10:16;10.10;;;2.85;;
42200;SDS011;27869;51.442;7.540;2023-08-24T02:12:43;9.23;;;2.63;;
42200;SDS011;27869;51.442;7.540;2023-08-24T02:15:09;11.80;;;3.15;;
42200;SDS011;27869;51.442;7.540;2023-08-24T02:17:38;8.45;;;2.38;;
42200;SDS011;27869;51.442;7.540;2023-08-24T02:20:05;10.15;;;2.58;;
42200;SDS011;27869;51.442;7.540;2023-08-24T02:25:00;11.63;;;2.63;;
42200;SDS011;27869;51.442;7.540;2023-08-24T02:27:28;9.52;;;2.78;;
42200;SDS011;27869;51.442;7.540;2023-08-24T02:29:54;9.18;;;2.63;;
42200;SDS011;27869;51.442;7.540;2023-08-24T02:32:21;9.23;;;2.50;;
42200;SDS011;27869;51.442;7.540;2023-08-24T02:34:50;8.93;;;2.67;;
42200;SDS011;27869;51.442;7.540;2023-08-24T02:37:17;9.77;;;2.60;;
42200;SDS011;27869;51.442;7.540;2023-08-24T02:39:44;8.65;;;2.60;;
42200;SDS011;27869;51.442;7.540;2023-08-24T02:42:10;10.30;;;2.83;;
42200;SDS011;27869;51.442;7.540;2023-08-24T02:44:37;12.60;;;2.92;;
42200;SDS011;27869;51.442;7.540;2023-08-24T02:47:05;9.32;;;2.53;;
42200;SDS011;27869;51.442;7.540;2023-08-24T02:49:33;8.70;;;2.40;;
42200;SDS011;27869;51.442;7.540;2023-08-24T02:52:01;8.55;;;2.60;;
42200;SDS011;27869;51.442;7.540;2023-08-24T02:54:28;10.00;;;2.97;;
42200;SDS011;27869;51.442;7.540;2023-08-24T02:56:54;9.95;;;2.83;;
42200;SDS011;27869;51.442;7.540;2023-08-24T02:59:21;12.65;;;2.75;;
42200;SDS011;27869;51.442;7.540;2023-08-24T03:01:48;11.60;;;2.92;;
42200;SDS011;27869;51.442;7.540;2023-08-24T03:04:15;8.55;;;2.70;;
42200;SDS011;27869;51.442;7.540;2023-08-24T03:06:43;9.57;;;2.55;;
42200;SDS011;27869;51.442;7.540;2023-08-24T03:11:39;12.07;;;2.60;;
42200;SDS011;27869;51.442;7.540;2023-08-24T03:14:06;9.48;;;2.83;;
42200;SDS011;27869;51.442;7.540;2023-08-24T03:16:33;9.60;;;2.55;;
42200;SDS011;27869;51.442;7.540;2023-08-24T03:19:00;8.90;;;2.53;;
42200;SDS011;27869;51.442;7.540;2023-08-24T03:21:27;15.10;;;2.83;;
42200;SDS011;27869;51.442;7.540;2023-08-24T03:23:55;8.85;;;2.58;;
42200;SDS011;27869;51.442;7.540;2023-08-24T03:26:23;10.63;;;2.70;;
42200;SDS011;27869;51.442;7.540;2023-08-24T03:28:50;9.25;;;2.35;;
42200;SDS011;27869;51.442;7.540;2023-08-24T03:31:17;10.90;;;2.55;;
42200;SDS011;27869;51.442;7.540;2023-08-24T03:33:45;10.00;;;2.58;;
42200;SDS011;27869;51.442;7.540;2023-08-24T03:36:12;8.10;;;2.45;;
42200;SDS011;27869;51.442;7.540;2023-08-24T03:38:38;9.98;;;2.60;;
42200;SDS011;27869;51.442;7.540;2023-08-24T03:41:05;11.93;;;2.95;;
42200;SDS011;27869;51.442;7.540;2023-08-24T03:43:34;10.20;;;2.70;;
42200;SDS011;27869;51.442;7.540;2023-08-24T03:46:02;9.85;;;2.75;;
42200;SDS011;27869;51.442;7.540;2023-08-24T03:48:29;10.80;;;2.83;;
42200;SDS011;27869;51.442;7.540;2023-08-24T03:50:56;9.82;;;3.13;;
42200;SDS011;27869;51.442;7.540;2023-08-24T03:53:23;9.93;;;2.63;;
42200;SDS011;27869;51.442;7.540;2023-08-24T03:55:51;9.15;;;3.10;;
42200;SDS011;27869;51.442;7.540;2023-08-24T03:58:18;11.52;;;3.70;;
42200;SDS011;27869;51.442;7.540;2023-08-24T04:00:47;11.18;;;3.10;;
42200;SDS011;27869;51.442;7.540;2023-08-24T04:03:14;9.82;;;2.83;;
42200;SDS011;27869;51.442;7.540;2023-08-24T04:05:40;10.70;;;3.10;;
42200;SDS011;27869;51.442;7.540;2023-08-24T04:08:07;12.25;;;3.13;;
42200;SDS011;27869;51.442;7.540;2023-08-24T04:10:34;11.30;;;3.00;;
42200;SDS011;27869;51.442;7.540;2023-08-24T04:13:01;10.27;;;3.10;;
42200;SDS011;27869;51.442;7.540;2023-08-24T04:15:28;10.73;;;2.90;;
42200;SDS011;27869;51.442;7.540;2023-08-24T04:17:56;10.18;;;3.22;;
42200;SDS011;27869;51.442;7.540;2023-08-24T04:20:23;9.10;;;3.20;;
42200;SDS011;27869;51.442;7.540;2023-08-24T04:22:50;12.60;;;3.30;;
42200;SDS011;27869;51.442;7.540;2023-08-24T04:25:17;10.02;;;3.30;;
42200;SDS011;27869;51.442;7.540;2023-08-24T04:27:43;8.70;;;3.05;;
42200;SDS011;27869;51.442;7.540;2023-08-24T04:30:10;10.23;;;3.40;;
42200;SDS011;27869;51.442;7.540;2023-08-24T04:32:38;9.68;;;3.15;;
42200;SDS011;27869;51.442;7.540;2023-08-24T04:35:07;10.38;;;2.95;;
42200;SDS011;27869;51.442;7.540;2023-08-24T04:37:35;11.07;;;2.80;;
42200;SDS011;27869;51.442;7.540;2023-08-24T04:40:02;10.43;;;3.05;;
42200;SDS011;27869;51.442;7.540;2023-08-24T04:42:32;9.75;;;3.05;;
42200;SDS011;27869;51.442;7.540;2023-08-24T04:44:59;9.50;;;2.80;;
42200;SDS011;27869;51.442;7.540;2023-08-24T04:47:26;9.65;;;3.13;;
42200;SDS011;27869;51.442;7.540;2023-08-24T04:49:53;9.70;;;2.70;;
42200;SDS011;27869;51.442;7.540;2023-08-24T04:52:21;10.38;;;2.92;;
42200;SDS011;27869;51.442;7.540;2023-08-24T04:54:48;11.15;;;2.95;;
42200;SDS011;27869;51.442;7.540;2023-08-24T04:57:14;11.25;;;2.92;;
42200;SDS011;27869;51.442;7.540;2023-08-24T04:59:42;11.13;;;2.85;;
42200;SDS011;27869;51.442;7.540;2023-08-24T05:02:12;10.15;;;2.88;;
42200;SDS011;27869;51.442;7.540;2023-08-24T05:04:39;10.27;;;2.88;;
42200;SDS011;27869;51.442;7.540;2023-08-24T05:07:06;12.20;;;2.88;;
42200;SDS011;27869;51.442;7.540;2023-08-24T05:09:34;12.13;;;3.05;;
42200;SDS011;27869;51.442;7.540;2023-08-24T05:12:01;9.85;;;3.20;;
42200;SDS011;27869;51.442;7.540;2023-08-24T05:14:28;13.48;;;3.28;;
42200;SDS011;27869;51.442;7.540;2023-08-24T05:16:54;10.27;;;2.97;;
42200;SDS011;27869;51.442;7.540;2023-08-24T05:19:21;9.25;;;3.13;;
42200;SDS011;27869;51.442;7.540;2023-08-24T05:21:48;12.15;;;3.72;;
42200;SDS011;27869;51.442;7.540;2023-08-24T05:24:15;11.23;;;3.72;;
42200;SDS011;27869;51.442;7.540;2023-08-24T05:26:43;12.48;;;3.70;;
42200;SDS011;27869;51.442;7.540;2023-08-24T05:29:10;13.18;;;3.70;;
42200;SDS011;27869;51.442;7.540;2023-08-24T05:31:37;13.38;;;3.90;;
42200;SDS011;27869;51.442;7.540;2023-08-24T05:34:04;10.88;;;3.70;;
42200;SDS011;27869;51.442;7.540;2023-08-24T05:36:30;10.48;;;3.40;;
42200;SDS011;27869;51.442;7.540;2023-08-24T05:38:57;11.35;;;3.28;;
42200;SDS011;27869;51.442;7.540;2023-08-24T05:41:24;12.10;;;3.40;;
42200;SDS011;27869;51.442;7.540;2023-08-24T05:43:53;12.00;;;4.03;;
42200;SDS011;27869;51.442;7.540;2023-08-24T05:46:19;13.35;;;3.85;;
42200;SDS011;27869;51.442;7.540;2023-08-24T05:48:46;12.90;;;3.97;;
42200;SDS011;27869;51.442;7.540;2023-08-24T05:51:13;12.68;;;4.28;;
42200;SDS011;27869;51.442;7.540;2023-08-24T05:53:40;11.50;;;4.18;;
42200;SDS011;27869;51.442;7.540;2023-08-24T05:56:07;11.55;;;3.83;;
42200;SDS011;27869;51.442;7.540;2023-08-24T05:58:34;12.20;;;3.72;;
42200;SDS011;27869;51.442;7.540;2023-08-24T06:01:02;11.98;;;3.97;;
42200;SDS011;27869;51.442;7.540;2023-08-24T06:03:29;11.57;;;3.83;;
42200;SDS011;27869;51.442;7.540;2023-08-24T06:06:00;11.70;;;3.90;;
42200;SDS011;27869;51.442;7.540;2023-08-24T06:08:28;10.80;;;3.55;;
42200;SDS011;27869;51.442;7.540;2023-08-24T06:10:56;11.98;;;3.80;;
42200;SDS011;27869;51.442;7.540;2023-08-24T06:13:23;11.40;;;3.90;;
42200;SDS011;27869;51.442;7.540;2023-08-24T06:15:50;9.93;;;3.58;;
42200;SDS011;27869;51.442;7.540;2023-08-24T06:18:18;10.65;;;3.70;;
42200;SDS011;27869;51.442;7.540;2023-08-24T06:20:45;13.27;;;4.00;;
42200;SDS011;27869;51.442;7.540;2023-08-24T06:23:14;12.05;;;3.97;;
42200;SDS011;27869;51.442;7.540;2023-08-24T06:25:41;12.82;;;3.97;;
42200;SDS011;27869;51.442;7.540;2023-08-24T06:28:08;12.02;;;4.15;;
42200;SDS011;27869;51.442;7.540;2023-08-24T06:30:36;13.10;;;3.88;;
42200;SDS011;27869;51.442;7.540;2023-08-24T06:33:04;12.48;;;3.78;;
42200;SDS011;27869;51.442;7.540;2023-08-24T06:35:33;11.38;;;4.18;;
42200;SDS011;27869;51.442;7.540;2023-08-24T06:38:00;16.63;;;4.10;;
42200;SDS011;27869;51.442;7.540;2023-08-24T06:40:27;11.35;;;3.63;;
42200;SDS011;27869;51.442;7.540;2023-08-24T06:42:55;11.45;;;3.90;;
42200;SDS011;27869;51.442;7.540;2023-08-24T06:45:22;12.00;;;4.15;;
42200;SDS011;27869;51.442;7.540;2023-08-24T06:47:49;11.57;;;3.55;;
42200;SDS011;27869;51.442;7.540;2023-08-24T06:50:16;12.73;;;3.60;;
42200;SDS011;27869;51.442;7.540;2023-08-24T06:52:45;12.45;;;3.40;;
42200;SDS011;27869;51.442;7.540;2023-08-24T06:55:12;10.30;;;3.35;;
42200;SDS011;27869;51.442;7.540;2023-08-24T06:57:39;10.45;;;3.35;;
42200;SDS011;27869;51.442;7.540;2023-08-24T07:00:07;10.75;;;3.42;;
42200;SDS011;27869;51.442;7.540;2023-08-24T07:02:34;10.95;;;3.25;;
42200;SDS011;27869;51.442;7.540;2023-08-24T07:05:02;10.00;;;3.15;;
42200;SDS011;27869;51.442;7.540;2023-08-24T07:07:31;9.90;;;3.10;;
42200;SDS011;27869;51.442;7.540;2023-08-24T07:09:59;10.77;;;3.15;;
42200;SDS011;27869;51.442;7.540;2023-08-24T07:12:26;11.05;;;3.00;;
42200;SDS011;27869;51.442;7.540;2023-08-24T07:14:54;9.73;;;3.03;;
42200;SDS011;27869;51.442;7.540;2023-08-24T07:17:21;10.23;;;2.90;;
42200;SDS011;27869;51.442;7.540;2023-08-24T07:19:47;9.93;;;3.00;;
42200;SDS011;27869;51.442;7.540;2023-08-24T07:22:15;9.82;;;2.92;;
42200;SDS011;27869;51.442;7.540;2023-08-24T07:24:42;10.32;;;2.97;;
42200;SDS011;27869;51.442;7.540;2023-08-24T07:27:10;8.05;;;2.42;;
42200;SDS011;27869;51.442;7.540;2023-08-24T07:29:37;9.05;;;2.30;;
42200;SDS011;27869;51.442;7.540;2023-08-24T07:32:04;7.75;;;2.25;;
42200;SDS011;27869;51.442;7.540;2023-08-24T07:34:31;7.53;;;2.13;;
42200;SDS011;27869;51.442;7.540;2023-08-24T07:36:58;9.68;;;2.50;;
42200;SDS011;27869;51.442;7.540;2023-08-24T07:39:24;9.80;;;2.65;;
42200;SDS011;27869;51.442;7.540;2023-08-24T07:41:51;8.35;;;2.33;;
42200;SDS011;27869;51.442;7.540;2023-08-24T07:44:20;8.88;;;2.63;;
42200;SDS011;27869;51.442;7.540;2023-08-24T07:46:47;7.78;;;2.25;;
42200;SDS011;27869;51.442;7.540;2023-08-24T07:49:14;9.07;;;2.50;;
42200;SDS011;27869;51.442;7.540;2023-08-24T07:51:41;8.52;;;2.65;;
42200;SDS011;27869;51.442;7.540;2023-08-24T07:54:09;8.48;;;2.50;;
42200;SDS011;27869;51.442;7.540;2023-08-24T07:56:35;10.10;;;2.28;;
42200;SDS011;27869;51.442;7.540;2023-08-24T07:59:02;9.95;;;2.22;;
42200;SDS011;27869;51.442;7.540;2023-08-24T08:01:31;8.77;;;2.08;;
42200;SDS011;27869;51.442;7.540;2023-08-24T08:03:57;9.50;;;2.17;;
42200;SDS011;27869;51.442;7.540;2023-08-24T08:06:25;7.97;;;1.80;;
42200;SDS011;27869;51.442;7.540;2023-08-24T08:08:52;10.63;;;2.25;;
42200;SDS011;27869;51.442;7.540;2023-08-24T08:11:19;9.55;;;2.15;;
42200;SDS011;27869;51.442;7.540;2023-08-24T08:13:47;8.27;;;1.88;;
42200;SDS011;27869;51.442;7.540;2023-08-24T08:16:14;7.50;;;1.95;;
42200;SDS011;27869;51.442;7.540;2023-08-24T08:18:42;7.38;;;2.10;;
42200;SDS011;27869;51.442;7.540;2023-08-24T08:21:09;8.35;;;2.10;;
42200;SDS011;27869;51.442;7.540;2023-08-24T08:23:37;11.32;;;2.10;;
42200;SDS011;27869;51.442;7.540;2023-08-24T08:26:04;9.75;;;2.08;;
42200;SDS011;27869;51.442;7.540;2023-08-24T08:28:31;9.02;;;2.42;;
42200;SDS011;27869;51.442;7.540;2023-08-24T08:30:59;11.05;;;2.47;;
42200;SDS011;27869;51.442;7.540;2023-08-24T08:33:27;9.68;;;2.45;;
42200;SDS011;27869;51.442;7.540;2023-08-24T08:35:55;9.23;;;2.20;;
42200;SDS011;27869;51.442;7.540;2023-08-24T08:38:22;10.02;;;2.53;;
42200;SDS011;27869;51.442;7.540;2023-08-24T08:40:51;9.73;;;2.22;;
42200;SDS011;27869;51.442;7.540;2023-08-24T08:45:47;12.23;;;2.45;;
42200;SDS011;27869;51.442;7.540;2023-08-24T08:48:15;10.77;;;2.20;;
42200;SDS011;27869;51.442;7.540;2023-08-24T08:50:42;11.52;;;2.50;;
42200;SDS011;27869;51.442;7.540;2023-08-24T08:53:11;10.15;;;2.13;;
42200;SDS011;27869;51.442;7.540;2023-08-24T08:55:37;10.48;;;2.25;;
42200;SDS011;27869;51.442;7.540;2023-08-24T08:58:05;9.55;;;2.20;;
42200;SDS011;27869;51.442;7.540;2023-08-24T09:00:32;11.75;;;2.85;;
42200;SDS011;27869;51.442;7.540;2023-08-24T09:02:59;9.20;;;2.03;;
42200;SDS011;27869;51.442;7.540;2023-08-24T09:05:30;8.75;;;2.30;;
42200;SDS011;27869;51.442;7.540;2023-08-24T09:07:57;13.32;;;2.30;;
42200;SDS011;27869;51.442;7.540;2023-08-24T09:10:25;11.23;;;2.58;;
42200;SDS011;27869;51.442;7.540;2023-08-24T09:12:52;13.77;;;2.95;;
42200;SDS011;27869;51.442;7.540;2023-08-24T09:15:24;13.52;;;3.00;;
42200;SDS011;27869;51.442;7.540;2023-08-24T09:17:53;11.45;;;3.00;;
42200;SDS011;27869;51.442;7.540;2023-08-24T09:20:21;15.30;;;2.88;;
42200;SDS011;27869;51.442;7.540;2023-08-24T09:22:48;9.90;;;2.90;;
42200;SDS011;27869;51.442;7.540;2023-08-24T09:25:16;12.43;;;3.83;;
42200;SDS011;27869;51.442;7.540;2023-08-24T09:27:44;15.95;;;3.85;;
42200;SDS011;27869;51.442;7.540;2023-08-24T09:30:11;14.23;;;3.78;;
42200;SDS011;27869;51.442;7.540;2023-08-24T09:32:39;13.55;;;4.57;;
42200;SDS011;27869;51.442;7.540;2023-08-24T09:35:08;11.77;;;3.58;;
42200;SDS011;27869;51.442;7.540;2023-08-24T09:37:36;11.75;;;3.80;;
42200;SDS011;27869;51.442;7.540;2023-08-24T09:40:04;13.20;;;3.90;;
42200;SDS011;27869;51.442;7.540;2023-08-24T09:42:37;12.05;;;3.35;;
42200;SDS011;27869;51.442;7.540;2023-08-24T09:45:07;11.90;;;3.50;;
42200;SDS011;27869;51.442;7.540;2023-08-24T09:47:37;13.82;;;4.30;;
42200;SDS011;27869;51.442;7.540;2023-08-24T09:50:04;14.52;;;3.13;;
42200;SDS011;27869;51.442;7.540;2023-08-24T09:52:33;12.63;;;3.15;;
42200;SDS011;27869;51.442;7.540;2023-08-24T09:57:31;10.10;;;2.80;;
42200;SDS011;27869;51.442;7.540;2023-08-24T10:00:02;11.10;;;2.50;;
42200;SDS011;27869;51.442;7.540;2023-08-24T10:02:36;9.77;;;2.55;;
42200;SDS011;27869;51.442;7.540;2023-08-24T10:05:06;13.25;;;2.95;;
42200;SDS011;27869;51.442;7.540;2023-08-24T10:07:36;13.68;;;2.90;;
42200;SDS011;27869;51.442;7.540;2023-08-24T10:10:06;7.90;;;2.30;;
42200;SDS011;27869;51.442;7.540;2023-08-24T10:12:39;16.98;;;3.13;;
42200;SDS011;27869;51.442;7.540;2023-08-24T10:15:12;14.38;;;3.30;;
42200;SDS011;27869;51.442;7.540;2023-08-24T10:17:41;11.07;;;3.03;;
42200;SDS011;27869;51.442;7.540;2023-08-24T10:20:09;10.63;;;2.83;;
42200;SDS011;27869;51.442;7.540;2023-08-24T10:22:37;11.55;;;2.67;;
42200;SDS011;27869;51.442;7.540;2023-08-24T10:25:05;10.65;;;2.90;;
42200;SDS011;27869;51.442;7.540;2023-08-24T10:27:35;12.10;;;2.50;;
42200;SDS011;27869;51.442;7.540;2023-08-24T10:30:03;9.48;;;2.67;;
42200;SDS011;27869;51.442;7.540;2023-08-24T10:32:31;15.10;;;2.88;;
42200;SDS011;27869;51.442;7.540;2023-08-24T10:34:59;15.85;;;2.90;;
42200;SDS011;27869;51.442;7.540;2023-08-24T10:37:27;16.23;;;3.45;;
42200;SDS011;27869;51.442;7.540;2023-08-24T10:39:54;11.65;;;2.83;;
42200;SDS011;27869;51.442;7.540;2023-08-24T10:42:21;9.20;;;2.55;;
42200;SDS011;27869;51.442;7.540;2023-08-24T10:44:48;11.25;;;2.63;;
42200;SDS011;27869;51.442;7.540;2023-08-24T10:47:16;10.43;;;2.90;;
42200;SDS011;27869;51.442;7.540;2023-08-24T10:49:45;9.57;;;2.72;;
42200;SDS011;27869;51.442;7.540;2023-08-24T10:52:25;9.85;;;2.30;;
42200;SDS011;27869;51.442;7.540;2023-08-24T10:54:56;10.43;;;2.45;;
42200;SDS011;27869;51.442;7.540;2023-08-24T10:57:26;10.30;;;2.63;;
42200;SDS011;27869;51.442;7.540;2023-08-24T11:00:02;12.68;;;2.60;;
42200;SDS011;27869;51.442;7.540;2023-08-24T11:02:40;8.77;;;2.28;;
42200;SDS011;27869;51.442;7.540;2023-08-24T11:05:15;12.30;;;2.53;;
42200;SDS011;27869;51.442;7.540;2023-08-24T11:07:55;12.48;;;2.85;;
42200;SDS011;27869;51.442;7.540;2023-08-24T11:10:23;15.18;;;2.90;;
42200;SDS011;27869;51.442;7.540;2023-08-24T11:13:04;10.00;;;2.38;;
42200;SDS011;27869;51.442;7.540;2023-08-24T11:15:37;11.63;;;2.45;;
42200;SDS011;27869;51.442;7.540;2023-08-24T11:18:11;9.57;;;2.42;;
42200;SDS011;27869;51.442;7.540;2023-08-24T11:20:46;10.73;;;2.38;;
42200;SDS011;27869;51.442;7.540;2023-08-24T11:23:16;9.80;;;2.45;;
42200;SDS011;27869;51.442;7.540;2023-08-24T11:25:44;7.07;;;2.05;;
42200;SDS011;27869;51.442;7.540;2023-08-24T11:28:11;9.40;;;2.10;;
42200;SDS011;27869;51.442;7.540;2023-08-24T11:30:42;8.63;;;2.33;;
42200;SDS011;27869;51.442;7.540;2023-08-24T11:33:09;7.53;;;2.00;;
42200;SDS011;27869;51.442;7.540;2023-08-24T11:38:05;11.68;;;2.30;;
42200;SDS011;27869;51.442;7.540;2023-08-24T11:40:34;8.60;;;2.45;;
42200;SDS011;27869;51.442;7.540;2023-08-24T11:43:01;9.95;;;2.33;;
42200;SDS011;27869;51.442;7.540;2023-08-24T11:45:31;10.70;;;2.13;;
42200;SDS011;27869;51.442;7.540;2023-08-24T11:47:59;8.20;;;2.22;;
42200;SDS011;27869;51.442;7.540;2023-08-24T11:50:27;14.18;;;2.42;;
42200;SDS011;27869;51.442;7.540;2023-08-24T11:52:54;10.77;;;2.58;;
42200;SDS011;27869;51.442;7.540;2023-08-24T11:55:22;10.95;;;2.10;;
42200;SDS011;27869;51.442;7.540;2023-08-24T11:57:50;10.70;;;2.47;;
42200;SDS011;27869;51.442;7.540;2023-08-24T12:00:18;9.38;;;2.30;;
42200;SDS011;27869;51.442;7.540;2023-08-24T12:02:47;8.05;;;2.17;;
42200;SDS011;27869;51.442;7.540;2023-08-24T12:05:21;10.43;;;2.10;;
42200;SDS011;27869;51.442;7.540;2023-08-24T12:07:48;7.90;;;2.10;;
42200;SDS011;27869;51.442;7.540;2023-08-24T12:10:15;11.00;;;2.20;;
42200;SDS011;27869;51.442;7.540;2023-08-24T12:12:42;9.63;;;2.30;;
42200;SDS011;27869;51.442;7.540;2023-08-24T12:15:16;9.38;;;2.08;;
42200;SDS011;27869;51.442;7.540;2023-08-24T12:17:45;7.68;;;2.10;;
42200;SDS011;27869;51.442;7.540;2023-08-24T12:20:16;9.98;;;2.20;;
42200;SDS011;27869;51.442;7.540;2023-08-24T12:22:49;11.55;;;2.17;;
42200;SDS011;27869;51.442;7.540;2023-08-24T12:27:50;8.98;;;2.10;;
42200;SDS011;27869;51.442;7.540;2023-08-24T12:30:19;8.15;;;1.88;;
42200;SDS011;27869;51.442;7.540;2023-08-24T12:32:46;7.80;;;2.10;;
42200;SDS011;27869;51.442;7.540;2023-08-24T12:35:15;10.13;;;2.13;;
42200;SDS011;27869;51.442;7.540;2023-08-24T12:37:42;11.43;;;2.47;;
42200;SDS011;27869;51.442;7.540;2023-08-24T12:40:09;9.52;;;2.13;;
42200;SDS011;27869;51.442;7.540;2023-08-24T12:42:37;8.95;;;2.03;;
42200;SDS011;27869;51.442;7.540;2023-08-24T12:45:04;10.50;;;2.50;;
42200;SDS011;27869;51.442;7.540;2023-08-24T12:47:34;11.18;;;2.40;;
42200;SDS011;27869;51.442;7.540;2023-08-24T12:50:04;13.10;;;2.22;;
42200;SDS011;27869;51.442;7.540;2023-08-24T12:52:34;12.35;;;2.53;;
42200;SDS011;27869;51.442;7.540;2023-08-24T12:55:01;8.82;;;2.25;;
42200;SDS011;27869;51.442;7.540;2023-08-24T12:57:29;8.88;;;2.22;;
42200;SDS011;27869;51.442;7.540;2023-08-24T12:59:56;9.25;;;2.13;;
42200;SDS011;27869;51.442;7.540;2023-08-24T13:02:23;10.95;;;2.40;;
42200;SDS011;27869;51.442;7.540;2023-08-24T13:04:51;12.20;;;2.50;;
42200;SDS011;27869;51.442;7.540;2023-08-24T13:07:19;11.07;;;2.60;;
42200;SDS011;27869;51.442;7.540;2023-08-24T13:09:46;10.18;;;2.30;;
42200;SDS011;27869;51.442;7.540;2023-08-24T13:12:13;9.93;;;2.20;;
42200;SDS011;27869;51.442;7.540;2023-08-24T13:14:39;9.63;;;2.20;;
42200;SDS011;27869;51.442;7.540;2023-08-24T13:17:06;10.20;;;2.22;;
42200;SDS011;27869;51.442;7.540;2023-08-24T13:19:33;9.73;;;2.08;;
42200;SDS011;27869;51.442;7.540;2023-08-24T13:22:01;9.23;;;2.35;;
42200;SDS011;27869;51.442;7.540;2023-08-24T13:24:28;10.38;;;2.45;;
42200;SDS011;27869;51.442;7.540;2023-08-24T13:26:55;10.55;;;2.47;;
42200;SDS011;27869;51.442;7.540;2023-08-24T13:29:22;12.55;;;2.20;;
42200;SDS011;27869;51.442;7.540;2023-08-24T13:31:49;8.23;;;2.08;;
42200;SDS011;27869;51.442;7.540;2023-08-24T13:34:16;10.38;;;2.10;;
42200;SDS011;27869;51.442;7.540;2023-08-24T13:36:42;11.60;;;2.28;;
42200;SDS011;27869;51.442;7.540;2023-08-24T13:39:11;11.07;;;2.00;;
42200;SDS011;27869;51.442;7.540;2023-08-24T13:41:37;11.20;;;2.33;;
42200;SDS011;27869;51.442;7.540;2023-08-24T13:44:04;9.15;;;2.30;;
42200;SDS011;27869;51.442;7.540;2023-08-24T13:46:31;11.98;;;2.30;;
42200;SDS011;27869;51.442;7.540;2023-08-24T13:48:58;13.38;;;2.40;;
42200;SDS011;27869;51.442;7.540;2023-08-24T13:51:25;12.85;;;2.35;;
42200;SDS011;27869;51.442;7.540;2023-08-24T13:53:52;10.63;;;2.60;;
42200;SDS011;27869;51.442;7.540;2023-08-24T13:56:20;11.75;;;2.10;;
42200;SDS011;27869;51.442;7.540;2023-08-24T13:58:47;10.73;;;2.25;;
42200;SDS011;27869;51.442;7.540;2023-08-24T14:01:14;11.02;;;2.40;;
42200;SDS011;27869;51.442;7.540;2023-08-24T14:03:41;11.77;;;2.47;;
42200;SDS011;27869;51.442;7.540;2023-08-24T14:06:09;11.38;;;2.20;;
42200;SDS011;27869;51.442;7.540;2023-08-24T14:08:36;9.60;;;2.28;;
42200;SDS011;27869;51.442;7.540;2023-08-24T14:11:03;10.75;;;2.35;;
42200;SDS011;27869;51.442;7.540;2023-08-24T14:13:31;7.88;;;2.13;;
42200;SDS011;27869;51.442;7.540;2023-08-24T14:15:58;11.50;;;2.50;;
42200;SDS011;27869;51.442;7.540;2023-08-24T14:18:25;9.60;;;1.85;;
42200;SDS011;27869;51.442;7.540;2023-08-24T14:20:53;12.45;;;2.30;;
42200;SDS011;27869;51.442;7.540;2023-08-24T14:23:20;9.45;;;2.30;;
42200;SDS011;27869;51.442;7.540;2023-08-24T14:25:47;11.35;;;2.42;;
42200;SDS011;27869;51.442;7.540;2023-08-24T14:28:19;7.85;;;2.15;;
42200;SDS011;27869;51.442;7.540;2023-08-24T14:30:48;12.23;;;2.60;;
42200;SDS011;27869;51.442;7.540;2023-08-24T14:33:15;11.27;;;2.35;;
42200;SDS011;27869;51.442;7.540;2023-08-24T14:35:49;9.50;;;2.20;;
42200;SDS011;27869;51.442;7.540;2023-08-24T14:38:17;9.68;;;2.13;;
42200;SDS011;27869;51.442;7.540;2023-08-24T14:40:44;10.10;;;2.28;;
42200;SDS011;27869;51.442;7.540;2023-08-24T14:43:11;10.70;;;2.15;;
42200;SDS011;27869;51.442;7.540;2023-08-24T14:45:37;9.05;;;2.25;;
42200;SDS011;27869;51.442;7.540;2023-08-24T14:48:06;9.30;;;2.20;;
42200;SDS011;27869;51.442;7.540;2023-08-24T14:52:59;10.57;;;2.20;;
42200;SDS011;27869;51.442;7.540;2023-08-24T14:55:26;8.95;;;2.38;;
42200;SDS011;27869;51.442;7.540;2023-08-24T14:57:53;9.10;;;2.03;;
42200;SDS011;27869;51.442;7.540;2023-08-24T15:00:21;7.63;;;2.10;;
42200;SDS011;27869;51.442;7.540;2023-08-24T15:02:48;9.77;;;2.22;;
42200;SDS011;27869;51.442;7.540;2023-08-24T15:05:16;12.40;;;2.33;;